createdAt,value
2022-09-01T00:01:43.186Z,40.53
2022-09-01T00:04:13.441Z,40.50
2022-09-01T00:06:40.905Z,40.94
2022-09-01T00:09:11.377Z,40.76
2022-09-01T00:11:41.584Z,40.48
2022-09-01T00:16:29.239Z,40.64
2022-09-01T00:18:56.101Z,40.74
2022-09-01T00:21:26.543Z,40.50
2022-09-01T00:23:53.531Z,40.84
2022-09-01T00:26:20.276Z,40.96
2022-09-01T00:28:46.947Z,40.96
2022-09-01T00:31:18.835Z,40.57
2022-09-01T00:33:47.345Z,40.83
2022-09-01T00:36:14.711Z,40.68
2022-09-01T00:38:41.565Z,40.66
2022-09-01T00:41:08.404Z,40.67
2022-09-01T00:43:44.663Z,40.56
2022-09-01T00:46:18.320Z,40.69
2022-09-01T00:48:51.373Z,40.74
2022-09-01T00:51:18.721Z,40.59
2022-09-01T00:53:45.873Z,40.43
2022-09-01T00:56:13.784Z,40.53
2022-09-01T00:58:40.799Z,40.57
2022-09-01T01:01:09.685Z,40.59
2022-09-01T01:03:36.915Z,40.31
2022-09-01T01:06:08.436Z,40.44
2022-09-01T01:08:40.092Z,40.47
2022-09-01T01:11:19.167Z,40.52
2022-09-01T01:13:55.830Z,40.79
2022-09-01T01:16:25.061Z,40.53
2022-09-01T01:18:52.739Z,40.27
2022-09-01T01:21:49.531Z,40.28
2022-09-01T01:24:23.095Z,40.56
2022-09-01T01:26:51.021Z,40.25
2022-09-01T01:29:18.832Z,40.63
2022-09-01T01:31:50.104Z,40.32
2022-09-01T01:34:18.262Z,40.59
2022-09-01T01:36:45.178Z,40.66
2022-09-01T01:39:18.821Z,40.60
2022-09-01T01:41:48.867Z,40.33
2022-09-01T01:44:19.036Z,40.23
2022-09-01T01:46:50.299Z,40.53
2022-09-01T01:49:20.709Z,40.21
2022-09-01T01:51:51.024Z,40.42
2022-09-01T01:54:19.931Z,40.13
2022-09-01T01:56:47.196Z,40.49
2022-09-01T01:59:16.486Z,40.62
2022-09-01T02:01:49.223Z,40.26
2022-09-01T02:04:19.890Z,40.37
2022-09-01T02:06:48.852Z,40.34
2022-09-01T02:09:19.136Z,40.57
2022-09-01T02:11:45.984Z,40.32
2022-09-01T02:14:13.696Z,40.29
2022-09-01T02:16:42.327Z,40.36
2022-09-01T02:19:12.250Z,40.59
2022-09-01T02:21:45.973Z,40.56
2022-09-01T02:24:12.902Z,40.27
2022-09-01T02:26:45.811Z,40.07
2022-09-01T02:29:19.008Z,40.37
2022-09-01T02:31:48.304Z,40.53
2022-09-01T02:34:15.603Z,40.27
2022-09-01T02:36:47.949Z,40.52
2022-09-01T02:39:23.203Z,40.18
2022-09-01T02:41:51.096Z,39.98
2022-09-01T02:44:23.376Z,40.30
2022-09-01T02:46:50.805Z,40.10
2022-09-01T02:49:25.791Z,39.88
2022-09-01T02:51:54.095Z,39.97
2022-09-01T02:54:24.538Z,39.84
2022-09-01T02:56:54.545Z,40.00
2022-09-01T02:59:26.271Z,39.87
2022-09-01T03:01:54.087Z,40.20
2022-09-01T03:04:22.722Z,39.96
2022-09-01T03:06:50.838Z,39.87
2022-09-01T03:09:18.710Z,39.95
2022-09-01T03:11:49.176Z,39.78
2022-09-01T03:14:16.992Z,40.07
2022-09-01T03:16:44.309Z,39.73
2022-09-01T03:19:12.040Z,39.99
2022-09-01T03:21:44.707Z,39.69
2022-09-01T03:24:17.851Z,39.85
2022-09-01T03:26:45.899Z,39.64
2022-09-01T03:29:17.092Z,40.00
2022-09-01T03:31:45.347Z,40.04
2022-09-01T03:34:12.598Z,40.14
2022-09-01T03:36:50.439Z,39.77
2022-09-01T03:39:25.924Z,39.92
2022-09-01T03:41:53.108Z,39.71
2022-09-01T03:44:19.939Z,40.03
2022-09-01T03:46:46.680Z,39.87
2022-09-01T03:49:15.515Z,39.99
2022-09-01T03:51:44.925Z,39.94
2022-09-01T03:54:12.405Z,40.02
2022-09-01T03:56:42.053Z,39.86
2022-09-01T03:59:17.139Z,40.21
2022-09-01T04:01:46.064Z,39.96
2022-09-01T04:04:13.969Z,40.00
2022-09-01T04:06:43.703Z,40.18
2022-09-01T04:09:11.224Z,39.70
2022-09-01T04:11:45.796Z,40.18
2022-09-01T04:14:15.154Z,39.72
2022-09-01T04:17:02.355Z,40.08
2022-09-01T04:19:30.575Z,39.74
2022-09-01T04:22:00.437Z,39.81
2022-09-01T04:24:33.349Z,39.97
2022-09-01T04:27:02.242Z,39.98
2022-09-01T04:29:31.778Z,40.08
2022-09-01T04:32:03.944Z,39.76
2022-09-01T04:34:40.296Z,39.82
2022-09-01T04:37:18.708Z,40.15
2022-09-01T04:39:56.175Z,39.78
2022-09-01T04:42:27.132Z,40.19
2022-09-01T04:44:54.778Z,39.87
2022-09-01T04:47:35.478Z,39.91
2022-09-01T04:50:14.026Z,40.03
2022-09-01T04:52:45.621Z,40.21
2022-09-01T04:55:28.629Z,40.22
2022-09-01T04:58:08.312Z,40.16
2022-09-01T05:00:37.502Z,40.23
2022-09-01T05:03:04.832Z,40.25
2022-09-01T05:05:54.707Z,40.14
2022-09-01T05:08:24.301Z,40.57
2022-09-01T05:10:56.595Z,40.72
2022-09-01T05:13:49.210Z,40.45
2022-09-01T05:16:25.199Z,40.62
2022-09-01T05:18:57.985Z,40.87
2022-09-01T05:21:31.554Z,41.14
2022-09-01T05:24:05.060Z,41.29
2022-09-01T05:26:34.555Z,41.13
2022-09-01T05:29:04.650Z,41.05
2022-09-01T05:31:34.913Z,41.13
2022-09-01T05:34:03.240Z,41.04
2022-09-01T05:36:33.922Z,41.21
2022-09-01T05:39:02.848Z,41.40
2022-09-01T05:41:30.318Z,41.20
2022-09-01T05:44:00.507Z,41.12
2022-09-01T05:46:29.842Z,41.37
2022-09-01T05:48:58.678Z,41.22
2022-09-01T05:51:44.009Z,41.41
2022-09-01T05:54:12.900Z,41.64
2022-09-01T05:56:44.024Z,41.44
2022-09-01T05:59:23.346Z,41.70
2022-09-01T06:01:53.191Z,41.52
2022-09-01T06:04:21.086Z,42.04
2022-09-01T06:07:05.740Z,41.60
2022-09-01T06:09:41.557Z,41.94
2022-09-01T06:12:17.180Z,42.06
2022-09-01T06:14:48.754Z,41.95
2022-09-01T06:17:24.538Z,42.16
2022-09-01T06:19:56.539Z,42.13
2022-09-01T06:22:25.652Z,42.26
2022-09-01T06:24:56.923Z,41.92
2022-09-01T06:27:25.069Z,41.96
2022-09-01T06:29:56.496Z,42.07
2022-09-01T06:32:26.017Z,42.30
2022-09-01T06:34:54.031Z,42.19
2022-09-01T06:37:22.382Z,41.68
2022-09-01T06:39:52.161Z,42.14
2022-09-01T06:42:20.202Z,42.00
2022-09-01T06:44:52.903Z,41.66
2022-09-01T06:47:19.964Z,41.75
2022-09-01T06:49:46.543Z,41.82
2022-09-01T06:52:21.979Z,41.59
2022-09-01T06:54:49.186Z,41.60
2022-09-01T07:00:18.751Z,41.98
2022-09-01T07:02:48.564Z,42.14
2022-09-01T07:09:18.975Z,42.47
2022-09-01T07:14:22.215Z,42.39
2022-09-01T07:16:53.276Z,42.46
2022-09-01T07:19:53.066Z,42.34
2022-09-01T07:22:39.245Z,42.64
2022-09-01T07:25:11.769Z,42.69
2022-09-01T07:28:06.332Z,42.67
2022-09-01T07:30:33.725Z,42.51
2022-09-01T07:39:49.006Z,42.96
2022-09-01T07:44:47.195Z,43.19
2022-09-01T07:47:52.838Z,42.96
2022-09-01T07:53:09.325Z,43.05
2022-09-01T07:55:41.255Z,42.88
2022-09-01T07:58:09.516Z,42.87
2022-09-01T08:00:37.093Z,43.05
2022-09-01T08:03:07.639Z,43.14
2022-09-01T08:05:34.594Z,43.23
2022-09-01T08:08:01.637Z,42.77
2022-09-01T08:10:32.426Z,43.22
2022-09-01T08:12:59.557Z,43.04
2022-09-01T08:16:06.949Z,42.68
2022-09-01T08:18:15.459Z,42.87
2022-09-01T08:20:47.438Z,42.84
2022-09-01T08:23:54.653Z,42.59
2022-09-01T08:26:25.070Z,42.67
2022-09-01T08:28:55.409Z,42.62
2022-09-01T08:31:31.227Z,42.81
2022-09-01T08:34:00.182Z,42.83
2022-09-01T08:36:28.063Z,42.67
2022-09-01T08:38:54.917Z,42.83
2022-09-01T08:41:47.222Z,42.59
2022-09-01T08:44:43.361Z,42.71
2022-09-01T08:47:15.508Z,42.75
2022-09-01T08:49:47.066Z,42.62
2022-09-01T08:53:09.138Z,42.77
2022-09-01T08:55:43.854Z,42.71
2022-09-01T08:58:14.550Z,42.61
2022-09-01T09:01:44.248Z,42.43
2022-09-01T09:04:26.053Z,42.31
2022-09-01T09:06:58.729Z,42.15
2022-09-01T09:09:38.557Z,41.41
2022-09-01T09:12:21.285Z,40.94
2022-09-01T09:15:04.392Z,40.75
2022-09-01T09:17:46.179Z,40.50
2022-09-01T09:20:13.025Z,40.13
2022-09-01T09:22:41.982Z,40.64
2022-09-01T09:25:12.579Z,40.95
2022-09-01T09:27:42.480Z,41.06
2022-09-01T09:30:11.847Z,40.87
2022-09-01T09:35:45.135Z,41.22
2022-09-01T09:38:21.042Z,41.12
2022-09-01T09:41:16.377Z,41.38
2022-09-01T09:44:03.264Z,39.89
2022-09-01T09:46:32.887Z,37.84
2022-09-01T09:49:32.576Z,36.29
2022-09-01T09:52:03.299Z,35.49
2022-09-01T09:54:31.475Z,34.89
2022-09-01T09:57:11.641Z,34.48
2022-09-01T10:00:00.450Z,34.15
2022-09-01T10:02:37.950Z,34.41
2022-09-01T10:05:23.544Z,34.08
2022-09-01T10:07:50.654Z,33.94
2022-09-01T10:10:41.514Z,33.67
2022-09-01T10:13:13.871Z,33.27
2022-09-01T10:18:37.211Z,33.89
2022-09-01T10:21:26.864Z,34.05
2022-09-01T10:23:53.985Z,34.42
2022-09-01T10:26:31.453Z,34.81
2022-09-01T10:29:20.665Z,35.12
2022-09-01T10:31:48.041Z,35.08
2022-09-01T10:34:19.451Z,35.93
2022-09-01T10:36:56.839Z,35.72
2022-09-01T10:39:28.664Z,35.99
2022-09-01T10:42:07.260Z,36.34
2022-09-01T10:44:55.075Z,36.61
2022-09-01T10:47:27.036Z,36.34
2022-09-01T10:49:53.642Z,36.45
2022-09-01T10:52:43.301Z,36.92
2022-09-01T10:55:26.717Z,37.21
2022-09-01T11:01:15.644Z,37.12
2022-09-01T11:03:57.477Z,37.58
2022-09-01T11:06:42.875Z,37.44
2022-09-01T11:09:38.692Z,37.83
2022-09-01T11:12:17.517Z,37.69
2022-09-01T11:15:26.807Z,37.80
2022-09-01T11:17:53.508Z,38.24
2022-09-01T11:20:31.665Z,38.05
2022-09-01T11:23:11.893Z,38.03
2022-09-01T11:26:18.989Z,38.33
2022-09-01T11:28:40.087Z,38.39
2022-09-01T11:31:08.631Z,38.40
2022-09-01T11:33:38.943Z,38.09
2022-09-01T11:36:23.541Z,38.15
2022-09-01T11:39:19.036Z,38.18
2022-09-01T11:42:23.992Z,38.45
2022-09-01T11:44:57.675Z,39.08
2022-09-01T11:47:38.370Z,39.04
2022-09-01T11:50:08.326Z,39.61
2022-09-01T11:52:38.181Z,39.54
2022-09-01T11:55:06.935Z,39.71
2022-09-01T11:57:36.087Z,39.64
2022-09-01T12:00:13.779Z,39.84
2022-09-01T12:02:49.962Z,39.74
2022-09-01T12:05:33.267Z,39.98
2022-09-01T12:08:03.831Z,40.20
2022-09-01T12:10:38.447Z,40.32
2022-09-01T12:13:05.076Z,40.59
2022-09-01T12:15:32.044Z,40.68
2022-09-01T12:18:23.936Z,41.10
2022-09-01T12:20:53.360Z,41.61
2022-09-01T12:23:31.616Z,41.68
2022-09-01T12:26:26.937Z,41.49
2022-09-01T12:28:54.742Z,41.93
2022-09-01T12:31:26.113Z,42.08
2022-09-01T12:33:54.951Z,41.96
2022-09-01T12:36:24.004Z,42.26
2022-09-01T12:38:52.319Z,41.85
2022-09-01T12:41:39.551Z,41.42
2022-09-01T12:44:37.344Z,41.26
2022-09-01T12:47:10.728Z,41.41
2022-09-01T12:49:48.001Z,41.84
2022-09-01T12:52:25.618Z,41.95
2022-09-01T12:54:58.272Z,41.91
2022-09-01T12:57:31.946Z,42.09
2022-09-01T13:00:10.871Z,42.49
2022-09-01T13:02:39.441Z,42.34
2022-09-01T13:05:47.043Z,42.35
2022-09-01T13:08:18.379Z,42.52
2022-09-01T13:10:51.722Z,42.30
2022-09-01T13:13:19.361Z,42.59
2022-09-01T13:15:54.583Z,42.56
2022-09-01T13:18:24.021Z,42.71
2022-09-01T13:20:52.920Z,41.59
2022-09-01T13:23:21.067Z,37.31
2022-09-01T13:25:49.025Z,34.83
2022-09-01T13:28:17.301Z,33.79
2022-09-01T13:31:28.761Z,32.72
2022-09-01T13:36:46.322Z,32.00
2022-09-01T13:39:15.646Z,31.08
2022-09-01T13:41:42.893Z,30.42
2022-09-01T13:44:11.572Z,30.39
2022-09-01T13:46:59.035Z,29.55
2022-09-01T13:52:12.999Z,29.25
2022-09-01T13:54:39.592Z,29.24
2022-09-01T13:57:07.277Z,29.47
2022-09-01T13:59:33.936Z,29.33
2022-09-01T14:02:01.842Z,28.80
2022-09-01T14:04:28.548Z,28.46
2022-09-01T14:06:55.556Z,28.76
2022-09-01T14:09:22.824Z,28.97
2022-09-01T14:11:52.994Z,28.61
2022-09-01T14:14:19.952Z,27.99
2022-09-01T14:16:46.686Z,28.55
2022-09-01T14:19:13.809Z,28.92
2022-09-01T14:21:40.444Z,29.45
2022-09-01T14:24:08.582Z,30.52
2022-09-01T14:26:35.335Z,30.57
2022-09-01T14:29:02.669Z,31.38
2022-09-01T14:31:32.051Z,31.70
2022-09-01T14:33:58.700Z,32.59
2022-09-01T14:36:26.415Z,33.10
2022-09-01T14:38:54.037Z,33.37
2022-09-01T14:41:24.114Z,33.84
2022-09-01T14:44:02.311Z,34.03
2022-09-01T14:48:46.945Z,34.10
2022-09-01T14:51:24.578Z,34.21
2022-09-01T14:53:52.968Z,34.61
2022-09-01T14:56:20.275Z,34.70
2022-09-01T14:58:48.572Z,34.78
2022-09-01T15:01:33.808Z,34.68
2022-09-01T15:04:01.955Z,34.44
2022-09-01T15:06:28.555Z,34.58
2022-09-01T15:08:55.217Z,34.70
2022-09-01T15:11:21.924Z,34.61
2022-09-01T15:13:52.421Z,34.75
2022-09-01T15:16:25.475Z,34.94
2022-09-01T15:18:53.031Z,34.87
2022-09-01T15:21:33.334Z,34.56
2022-09-01T15:24:01.473Z,34.62
2022-09-01T15:26:28.664Z,34.59
2022-09-01T15:28:57.252Z,34.22
2022-09-01T15:31:32.736Z,34.30
2022-09-01T15:34:02.506Z,34.15
2022-09-01T15:36:30.473Z,34.39
2022-09-01T15:51:22.364Z,34.42
2022-09-01T15:53:57.487Z,34.65
2022-09-01T15:56:24.216Z,34.48
2022-09-01T15:59:00.618Z,34.68
2022-09-01T16:01:29.866Z,34.55
2022-09-01T16:03:56.487Z,34.46
2022-09-01T16:06:23.757Z,34.45
2022-09-01T16:08:51.096Z,34.61
2022-09-01T16:11:17.855Z,34.28
2022-09-01T16:13:44.416Z,34.00
2022-09-01T16:16:23.009Z,34.02
2022-09-01T16:18:58.896Z,33.80
2022-09-01T16:21:54.909Z,33.98
2022-09-01T16:24:22.314Z,34.00
2022-09-01T16:26:49.425Z,33.52
2022-09-01T16:29:40.976Z,33.63
2022-09-01T16:32:12.216Z,33.57
2022-09-01T16:34:46.763Z,33.61
2022-09-01T16:37:32.207Z,33.82
2022-09-01T16:40:09.912Z,33.26
2022-09-01T16:42:50.428Z,33.52
2022-09-01T16:45:53.014Z,33.45
2022-09-01T16:48:22.385Z,33.64
2022-09-01T16:51:24.679Z,33.70
2022-09-01T16:54:15.787Z,33.79
2022-09-01T16:57:14.555Z,33.53
2022-09-01T16:59:56.057Z,33.62
2022-09-01T17:02:38.654Z,33.98
2022-09-01T17:05:05.589Z,33.85
2022-09-01T17:08:06.900Z,33.86
2022-09-01T17:11:04.685Z,34.14
2022-09-01T17:13:31.825Z,33.89
2022-09-01T17:16:12.626Z,33.79
2022-09-01T17:19:01.636Z,34.42
2022-09-01T17:21:37.511Z,34.37
2022-09-01T17:24:21.489Z,34.30
2022-09-01T17:26:51.004Z,34.75
2022-09-01T17:29:25.869Z,34.46
2022-09-01T17:32:13.784Z,34.85
2022-09-01T17:34:53.728Z,34.81
2022-09-01T17:37:47.834Z,34.88
2022-09-01T17:40:20.274Z,34.77
2022-09-01T17:43:18.124Z,34.87
2022-09-01T17:46:05.125Z,35.29
2022-09-01T17:48:43.758Z,35.14
2022-09-01T17:51:37.529Z,34.98
2022-09-01T17:54:17.627Z,35.25
2022-09-01T17:57:09.373Z,35.25
2022-09-01T17:59:52.779Z,35.37
2022-09-01T18:04:57.739Z,35.54
2022-09-01T18:07:42.861Z,35.62
2022-09-01T18:10:15.697Z,35.48
2022-09-01T18:12:43.921Z,35.76
2022-09-01T18:15:23.649Z,35.68
2022-09-01T18:18:29.088Z,35.83
2022-09-01T18:21:03.435Z,35.90
2022-09-01T18:23:32.210Z,36.01
2022-09-01T18:26:21.832Z,35.85
2022-09-01T18:28:52.953Z,36.14
2022-09-01T18:31:34.889Z,36.11
2022-09-01T18:34:19.786Z,36.37
2022-09-01T18:37:10.453Z,36.45
2022-09-01T18:39:47.115Z,36.07
2022-09-01T18:42:44.434Z,36.55
2022-09-01T18:45:19.208Z,36.14
2022-09-01T18:48:08.831Z,36.58
2022-09-01T18:50:57.304Z,36.28
2022-09-01T18:53:39.810Z,36.70
2022-09-01T18:56:22.208Z,36.45
2022-09-01T18:58:57.645Z,36.19
2022-09-01T19:01:42.545Z,36.29
2022-09-01T19:04:31.382Z,36.50
2022-09-01T19:07:11.921Z,36.17
2022-09-01T19:10:21.686Z,36.55
2022-09-01T19:13:03.427Z,36.85
2022-09-01T19:15:58.103Z,37.44
2022-09-01T19:18:45.273Z,38.11
2022-09-01T19:21:32.219Z,38.95
2022-09-01T19:24:22.585Z,39.42
2022-09-01T19:26:55.098Z,39.62
2022-09-01T19:29:44.113Z,40.06
2022-09-01T19:32:18.157Z,40.43
2022-09-01T19:34:58.311Z,40.79
2022-09-01T19:37:28.017Z,40.62
2022-09-01T19:39:54.737Z,40.56
2022-09-01T19:42:28.789Z,40.55
2022-09-01T19:45:06.642Z,41.04
2022-09-01T19:47:36.906Z,40.83
2022-09-01T19:50:28.814Z,40.82
2022-09-01T19:53:16.025Z,40.89
2022-09-01T19:55:50.800Z,41.04
2022-09-01T19:58:25.193Z,41.08
2022-09-01T20:01:01.412Z,40.71
2022-09-01T20:03:37.790Z,40.59
2022-09-01T20:06:16.343Z,40.70
2022-09-01T20:09:05.593Z,40.58
2022-09-01T20:11:40.069Z,40.62
2022-09-01T20:14:24.943Z,40.51
2022-09-01T20:16:56.364Z,40.33
2022-09-01T20:19:38.064Z,40.70
2022-09-01T20:22:24.852Z,40.20
2022-09-01T20:25:09.784Z,40.32
2022-09-01T20:27:37.145Z,40.21
2022-09-01T20:30:10.317Z,40.40
2022-09-01T20:32:46.264Z,40.51
2022-09-01T20:35:18.113Z,40.38
2022-09-01T20:38:27.613Z,40.28
2022-09-01T20:40:56.794Z,40.32
2022-09-01T20:43:30.780Z,39.87
2022-09-01T20:45:58.781Z,40.15
2022-09-01T20:48:27.487Z,39.86
2022-09-01T20:51:03.012Z,40.08
2022-09-01T20:53:57.321Z,39.82
2022-09-01T20:59:03.212Z,39.78
2022-09-01T21:01:37.387Z,40.04
2022-09-01T21:06:49.133Z,39.74
2022-09-01T21:09:25.175Z,39.97
2022-09-01T21:12:06.668Z,39.80
2022-09-01T21:14:45.862Z,40.25
2022-09-01T21:17:23.748Z,39.88
2022-09-01T21:20:09.236Z,40.09
2022-09-01T21:22:35.937Z,39.73
2022-09-01T21:25:03.082Z,40.09
2022-09-01T21:27:53.815Z,39.68
2022-09-01T21:30:21.042Z,39.60
2022-09-01T21:32:48.056Z,39.70
2022-09-01T21:35:18.963Z,39.66
2022-09-01T21:37:45.753Z,39.74
2022-09-01T21:40:14.118Z,39.87
2022-09-01T21:42:58.844Z,39.59
2022-09-01T21:45:25.803Z,39.70
2022-09-01T21:47:53.592Z,39.34
2022-09-01T21:50:22.785Z,39.45
2022-09-01T21:52:49.841Z,39.73
2022-09-01T21:55:22.947Z,39.59
2022-09-01T21:57:51.064Z,39.38
2022-09-01T22:00:25.012Z,39.25
2022-09-01T22:02:52.804Z,39.26
2022-09-01T22:05:19.604Z,39.24
2022-09-01T22:07:47.793Z,39.24
2022-09-01T22:10:18.705Z,39.09
2022-09-01T22:12:48.301Z,39.14
2022-09-01T22:15:18.087Z,38.92
2022-09-01T22:17:45.333Z,39.16
2022-09-01T22:20:14.764Z,39.00
2022-09-01T22:22:41.623Z,38.69
2022-09-01T22:25:16.521Z,38.63
2022-09-01T22:27:43.305Z,39.13
2022-09-01T22:30:13.273Z,38.66
2022-09-01T22:32:44.952Z,39.11
2022-09-01T22:35:13.010Z,39.13
2022-09-01T22:37:40.336Z,38.68
2022-09-01T22:40:08.955Z,39.03
2022-09-01T22:42:36.124Z,39.00
2022-09-01T22:45:03.660Z,38.97
2022-09-01T22:47:30.304Z,39.03
2022-09-01T22:49:58.781Z,38.91
2022-09-01T22:52:25.576Z,38.93
2022-09-01T22:54:52.764Z,38.60
2022-09-01T22:57:20.210Z,39.04
2022-09-01T22:59:47.101Z,38.87
2022-09-01T23:02:13.855Z,38.96
2022-09-01T23:04:42.310Z,38.57
2022-09-01T23:07:09.363Z,38.58
2022-09-01T23:09:36.374Z,38.85
2022-09-01T23:12:04.026Z,38.80
2022-09-01T23:14:30.731Z,38.87
2022-09-01T23:16:57.431Z,38.61
2022-09-01T23:19:24.132Z,38.55
2022-09-01T23:21:51.612Z,38.95
2022-09-01T23:24:19.990Z,38.83
2022-09-01T23:26:47.855Z,38.96
2022-09-01T23:29:14.592Z,38.78
2022-09-01T23:31:41.306Z,38.67
2022-09-01T23:34:08.827Z,38.84
2022-09-01T23:36:36.298Z,38.99
2022-09-01T23:39:04.588Z,38.76
2022-09-01T23:41:34.272Z,38.55
2022-09-01T23:44:03.619Z,38.51
2022-09-01T23:46:33.471Z,38.85
2022-09-01T23:49:01.917Z,38.85
2022-09-01T23:51:28.656Z,38.79
2022-09-01T23:53:55.543Z,38.98
2022-09-01T23:56:24.593Z,38.50
2022-09-01T23:58:51.989Z,38.99
